sensor_id;sensor_type;location;lat;lon;timestamp;noise_LAeq;noise_LA_min;noise_LA_max;noise_LA01;noise_LA95
69620;Laerm;57654;51.434;5.984;2023-01-20T00:00:07;31.67;29.12;37.12;;
69620;Laerm;57654;51.434;5.984;2023-01-20T00:00:18;31.49;29.15;35.19;;
69620;Laerm;57654;51.434;5.984;2023-01-20T00:00:28;30.92;28.54;34.77;;
69620;Laerm;57654;51.434;5.984;2023-01-20T00:00:42;31.09;29.03;36.37;;
69620;Laerm;57654;51.434;5.984;2023-01-20T00:00:53;30.80;28.73;35.05;;
69620;Laerm;57654;51.434;5.984;2023-01-20T00:01:07;30.63;28.62;34.91;;
69620;Laerm;57654;51.434;5.984;2023-01-20T00:01:24;30.89;28.52;35.74;;
69620;Laerm;57654;51.434;5.984;2023-01-20T00:01:44;31.10;28.90;36.77;;
69620;Laerm;57654;51.434;5.984;2023-01-20T00:02:06;31.02;28.81;36.84;;
69620;Laerm;57654;51.434;5.984;2023-01-20T00:02:19;30.91;28.81;36.13;;
69620;Laerm;57654;51.434;5.984;2023-01-20T00:02:31;30.91;28.80;36.69;;
69620;Laerm;57654;51.434;5.984;2023-01-20T00:02:45;30.81;29.00;34.79;;
69620;Laerm;57654;51.434;5.984;2023-01-20T00:03:01;30.89;28.83;36.49;;
69620;Laerm;57654;51.434;5.984;2023-01-20T00:03:22;30.96;28.73;37.01;;
69620;Laerm;57654;51.434;5.984;2023-01-20T00:03:40;31.00;29.06;39.07;;
69620;Laerm;57654;51.434;5.984;2023-01-20T00:03:57;31.08;28.66;36.08;;
69620;Laerm;57654;51.434;5.984;2023-01-20T00:04:14;30.91;28.68;39.76;;
69620;Laerm;57654;51.434;5.984;2023-01-20T00:04:34;30.89;28.95;36.45;;
69620;Laerm;57654;51.434;5.984;2023-01-20T00:04:48;31.01;28.73;35.92;;
69620;Laerm;57654;51.434;5.984;2023-01-20T00:05:01;31.30;29.06;35.77;;
69620;Laerm;57654;51.434;5.984;2023-01-20T00:05:14;31.36;28.91;36.43;;
69620;Laerm;57654;51.434;5.984;2023-01-20T00:05:28;31.55;29.23;36.93;;
69620;Laerm;57654;51.434;5.984;2023-01-20T00:05:44;31.47;29.22;39.77;;
69620;Laerm;57654;51.434;5.984;2023-01-20T00:06:01;31.16;28.71;36.47;;
69620;Laerm;57654;51.434;5.984;2023-01-20T00:06:13;30.87;28.88;40.15;;
69620;Laerm;57654;51.434;5.984;2023-01-20T00:06:25;30.88;28.93;36.97;;
69620;Laerm;57654;51.434;5.984;2023-01-20T00:06:40;31.20;28.91;37.78;;
69620;Laerm;57654;51.434;5.984;2023-01-20T00:06:51;31.45;28.85;40.49;;
69620;Laerm;57654;51.434;5.984;2023-01-20T00:07:03;31.02;28.98;35.32;;
69620;Laerm;57654;51.434;5.984;2023-01-20T00:07:14;30.92;28.71;36.54;;
69620;Laerm;57654;51.434;5.984;2023-01-20T00:07:25;31.29;28.67;39.85;;
69620;Laerm;57654;51.434;5.984;2023-01-20T00:07:36;30.95;28.86;35.99;;
69620;Laerm;57654;51.434;5.984;2023-01-20T00:07:47;31.09;28.73;37.29;;
69620;Laerm;57654;51.434;5.984;2023-01-20T00:07:58;31.19;28.87;35.93;;
69620;Laerm;57654;51.434;5.984;2023-01-20T00:08:09;30.95;28.90;36.04;;
69620;Laerm;57654;51.434;5.984;2023-01-20T00:08:20;31.36;29.02;36.63;;
69620;Laerm;57654;51.434;5.984;2023-01-20T00:08:31;30.99;29.00;35.58;;
69620;Laerm;57654;51.434;5.984;2023-01-20T00:08:42;31.05;28.97;34.93;;
69620;Laerm;57654;51.434;5.984;2023-01-20T00:08:53;31.21;29.13;34.43;;
69620;Laerm;57654;51.434;5.984;2023-01-20T00:09:04;31.43;29.33;35.82;;
69620;Laerm;57654;51.434;5.984;2023-01-20T00:09:16;31.45;29.26;37.98;;
69620;Laerm;57654;51.434;5.984;2023-01-20T00:09:27;31.41;28.96;37.11;;
69620;Laerm;57654;51.434;5.984;2023-01-20T00:09:37;31.41;29.32;36.89;;
69620;Laerm;57654;51.434;5.984;2023-01-20T00:09:48;31.36;29.59;36.34;;
69620;Laerm;57654;51.434;5.984;2023-01-20T00:09:59;31.19;29.02;37.20;;
69620;Laerm;57654;51.434;5.984;2023-01-20T00:10:09;31.19;28.95;36.22;;
69620;Laerm;57654;51.434;5.984;2023-01-20T00:10:20;31.29;29.10;36.73;;
69620;Laerm;57654;51.434;5.984;2023-01-20T00:10:31;31.12;28.94;35.27;;
69620;Laerm;57654;51.434;5.984;2023-01-20T00:10:42;31.28;29.11;35.47;;
69620;Laerm;57654;51.434;5.984;2023-01-20T00:10:53;31.16;28.85;37.98;;
69620;Laerm;57654;51.434;5.984;2023-01-20T00:11:04;31.23;28.86;36.93;;
69620;Laerm;57654;51.434;5.984;2023-01-20T00:11:15;31.39;29.14;38.15;;
69620;Laerm;57654;51.434;5.984;2023-01-20T00:11:25;31.73;29.26;36.69;;
69620;Laerm;57654;51.434;5.984;2023-01-20T00:11:36;31.84;29.18;36.71;;
69620;Laerm;57654;51.434;5.984;2023-01-20T00:11:47;31.61;28.97;36.53;;
69620;Laerm;57654;51.434;5.984;2023-01-20T00:11:57;30.95;28.90;34.53;;
69620;Laerm;57654;51.434;5.984;2023-01-20T00:12:08;31.36;29.05;35.90;;
69620;Laerm;57654;51.434;5.984;2023-01-20T00:12:18;31.06;29.21;35.75;;
69620;Laerm;57654;51.434;5.984;2023-01-20T00:12:29;31.03;28.75;36.64;;
69620;Laerm;57654;51.434;5.984;2023-01-20T00:12:41;31.25;28.92;36.30;;
69620;Laerm;57654;51.434;5.984;2023-01-20T00:12:51;31.12;29.02;39.40;;
69620;Laerm;57654;51.434;5.984;2023-01-20T00:13:02;30.95;28.85;36.01;;
69620;Laerm;57654;51.434;5.984;2023-01-20T00:13:12;30.99;29.08;36.02;;
69620;Laerm;57654;51.434;5.984;2023-01-20T00:13:23;31.32;28.95;37.22;;
69620;Laerm;57654;51.434;5.984;2023-01-20T00:13:33;31.16;29.05;35.87;;
69620;Laerm;57654;51.434;5.984;2023-01-20T00:13:44;31.15;29.06;36.91;;
69620;Laerm;57654;51.434;5.984;2023-01-20T00:13:55;31.49;28.92;39.34;;
69620;Laerm;57654;51.434;5.984;2023-01-20T00:14:07;31.35;28.99;36.39;;
69620;Laerm;57654;51.434;5.984;2023-01-20T00:14:18;31.43;29.40;36.49;;
69620;Laerm;57654;51.434;5.984;2023-01-20T00:14:30;31.30;29.02;36.28;;
69620;Laerm;57654;51.434;5.984;2023-01-20T00:14:41;31.09;28.97;35.46;;
69620;Laerm;57654;51.434;5.984;2023-01-20T00:14:51;31.07;29.06;35.87;;
69620;Laerm;57654;51.434;5.984;2023-01-20T00:15:02;31.29;28.97;37.62;;
69620;Laerm;57654;51.434;5.984;2023-01-20T00:15:13;31.14;29.06;36.29;;
69620;Laerm;57654;51.434;5.984;2023-01-20T00:15:23;31.38;29.09;37.92;;
69620;Laerm;57654;51.434;5.984;2023-01-20T00:15:34;31.01;29.16;34.93;;
69620;Laerm;57654;51.434;5.984;2023-01-20T00:15:44;30.98;28.95;36.43;;
69620;Laerm;57654;51.434;5.984;2023-01-20T00:15:55;31.05;28.64;36.79;;
69620;Laerm;57654;51.434;5.984;2023-01-20T00:16:06;31.03;29.22;36.01;;
69620;Laerm;57654;51.434;5.984;2023-01-20T00:16:16;31.11;28.92;36.22;;
69620;Laerm;57654;51.434;5.984;2023-01-20T00:16:27;31.37;29.12;37.69;;
69620;Laerm;57654;51.434;5.984;2023-01-20T00:16:38;31.24;28.86;39.17;;
69620;Laerm;57654;51.434;5.984;2023-01-20T00:16:49;31.01;28.45;34.84;;
69620;Laerm;57654;51.434;5.984;2023-01-20T00:16:59;31.08;28.87;37.17;;
69620;Laerm;57654;51.434;5.984;2023-01-20T00:17:10;31.19;29.08;40.94;;
69620;Laerm;57654;51.434;5.984;2023-01-20T00:17:21;30.96;29.19;34.57;;
69620;Laerm;57654;51.434;5.984;2023-01-20T00:17:32;31.15;28.68;36.07;;
69620;Laerm;57654;51.434;5.984;2023-01-20T00:17:42;31.00;29.10;36.66;;
69620;Laerm;57654;51.434;5.984;2023-01-20T00:17:53;30.77;28.52;35.46;;
69620;Laerm;57654;51.434;5.984;2023-01-20T00:18:03;31.02;29.00;35.86;;
69620;Laerm;57654;51.434;5.984;2023-01-20T00:18:14;31.04;28.87;37.58;;
69620;Laerm;57654;51.434;5.984;2023-01-20T00:18:24;30.88;28.75;37.88;;
69620;Laerm;57654;51.434;5.984;2023-01-20T00:18:35;31.35;28.96;39.09;;
69620;Laerm;57654;51.434;5.984;2023-01-20T00:18:46;31.08;28.96;35.67;;
69620;Laerm;57654;51.434;5.984;2023-01-20T00:18:56;30.86;28.82;34.61;;
69620;Laerm;57654;51.434;5.984;2023-01-20T00:19:08;30.88;28.88;37.16;;
69620;Laerm;57654;51.434;5.984;2023-01-20T00:19:18;30.99;28.84;37.18;;
69620;Laerm;57654;51.434;5.984;2023-01-20T00:19:28;30.96;28.71;38.04;;
69620;Laerm;57654;51.434;5.984;2023-01-20T00:19:39;31.01;28.94;35.82;;
69620;Laerm;57654;51.434;5.984;2023-01-20T00:19:49;31.15;29.20;36.76;;
69620;Laerm;57654;51.434;5.984;2023-01-20T00:20:00;31.08;29.01;35.42;;
69620;Laerm;57654;51.434;5.984;2023-01-20T00:20:10;31.09;29.11;36.59;;
69620;Laerm;57654;51.434;5.984;2023-01-20T00:20:21;30.97;29.03;34.47;;
69620;Laerm;57654;51.434;5.984;2023-01-20T00:20:31;30.91;29.06;37.19;;
69620;Laerm;57654;51.434;5.984;2023-01-20T00:20:42;31.11;29.03;37.30;;
69620;Laerm;57654;51.434;5.984;2023-01-20T00:20:53;31.23;29.08;36.25;;
69620;Laerm;57654;51.434;5.984;2023-01-20T00:21:07;31.23;28.94;36.57;;
69620;Laerm;57654;51.434;5.984;2023-01-20T00:21:18;30.99;28.84;35.62;;
69620;Laerm;57654;51.434;5.984;2023-01-20T00:21:28;31.04;28.74;35.17;;
69620;Laerm;57654;51.434;5.984;2023-01-20T00:21:39;31.43;28.61;36.99;;
69620;Laerm;57654;51.434;5.984;2023-01-20T00:21:50;31.21;29.13;36.54;;
69620;Laerm;57654;51.434;5.984;2023-01-20T00:22:00;31.15;29.10;36.74;;
69620;Laerm;57654;51.434;5.984;2023-01-20T00:22:10;31.09;28.87;36.26;;
69620;Laerm;57654;51.434;5.984;2023-01-20T00:22:21;31.28;29.28;37.16;;
69620;Laerm;57654;51.434;5.984;2023-01-20T00:22:31;31.21;29.27;36.00;;
69620;Laerm;57654;51.434;5.984;2023-01-20T00:22:43;31.03;29.16;35.45;;
69620;Laerm;57654;51.434;5.984;2023-01-20T00:22:54;31.28;29.24;37.01;;
69620;Laerm;57654;51.434;5.984;2023-01-20T00:23:04;31.12;28.32;36.82;;
69620;Laerm;57654;51.434;5.984;2023-01-20T00:23:15;31.03;28.64;36.51;;
69620;Laerm;57654;51.434;5.984;2023-01-20T00:23:25;30.86;28.92;36.30;;
69620;Laerm;57654;51.434;5.984;2023-01-20T00:23:36;31.14;28.73;35.74;;
69620;Laerm;57654;51.434;5.984;2023-01-20T00:23:46;30.98;29.00;35.44;;
69620;Laerm;57654;51.434;5.984;2023-01-20T00:23:57;31.06;29.03;36.59;;
69620;Laerm;57654;51.434;5.984;2023-01-20T00:24:07;31.23;29.19;37.48;;
69620;Laerm;57654;51.434;5.984;2023-01-20T00:24:18;31.04;28.94;34.90;;
69620;Laerm;57654;51.434;5.984;2023-01-20T00:24:28;30.98;28.94;35.76;;
69620;Laerm;57654;51.434;5.984;2023-01-20T00:24:38;30.87;28.96;35.51;;
69620;Laerm;57654;51.434;5.984;2023-01-20T00:24:49;30.82;28.88;36.74;;
69620;Laerm;57654;51.434;5.984;2023-01-20T00:25:00;31.03;28.84;35.46;;
69620;Laerm;57654;51.434;5.984;2023-01-20T00:25:10;30.96;28.99;35.75;;
69620;Laerm;57654;51.434;5.984;2023-01-20T00:25:20;31.01;28.52;36.11;;
69620;Laerm;57654;51.434;5.984;2023-01-20T00:25:33;30.97;29.01;34.79;;
69620;Laerm;57654;51.434;5.984;2023-01-20T00:25:44;30.85;28.72;36.96;;
69620;Laerm;57654;51.434;5.984;2023-01-20T00:25:54;31.17;28.75;36.13;;
69620;Laerm;57654;51.434;5.984;2023-01-20T00:26:09;30.81;28.84;36.22;;
69620;Laerm;57654;51.434;5.984;2023-01-20T00:26:21;31.03;28.39;39.38;;
69620;Laerm;57654;51.434;5.984;2023-01-20T00:26:32;30.83;28.76;35.23;;
69620;Laerm;57654;51.434;5.984;2023-01-20T00:26:43;30.85;28.67;35.67;;
69620;Laerm;57654;51.434;5.984;2023-01-20T00:26:53;30.95;28.99;36.45;;
69620;Laerm;57654;51.434;5.984;2023-01-20T00:27:03;31.20;28.89;37.78;;
69620;Laerm;57654;51.434;5.984;2023-01-20T00:27:14;30.90;29.01;36.87;;
69620;Laerm;57654;51.434;5.984;2023-01-20T00:27:24;31.15;29.00;36.73;;
69620;Laerm;57654;51.434;5.984;2023-01-20T00:27:34;31.13;28.82;35.79;;
69620;Laerm;57654;51.434;5.984;2023-01-20T00:27:45;30.89;28.76;35.74;;
69620;Laerm;57654;51.434;5.984;2023-01-20T00:27:56;31.32;28.90;37.63;;
69620;Laerm;57654;51.434;5.984;2023-01-20T00:28:06;31.20;29.24;35.86;;
69620;Laerm;57654;51.434;5.984;2023-01-20T00:28:16;31.28;28.87;39.22;;
69620;Laerm;57654;51.434;5.984;2023-01-20T00:28:26;31.07;28.92;36.05;;
69620;Laerm;57654;51.434;5.984;2023-01-20T00:28:37;31.13;29.07;38.63;;
69620;Laerm;57654;51.434;5.984;2023-01-20T00:28:47;31.18;29.15;34.93;;
69620;Laerm;57654;51.434;5.984;2023-01-20T00:28:58;31.28;28.85;39.56;;
69620;Laerm;57654;51.434;5.984;2023-01-20T00:29:08;31.11;28.89;35.03;;
69620;Laerm;57654;51.434;5.984;2023-01-20T00:29:19;31.19;29.03;36.49;;
69620;Laerm;57654;51.434;5.984;2023-01-20T00:29:29;30.96;29.04;34.53;;
69620;Laerm;57654;51.434;5.984;2023-01-20T00:29:39;30.91;29.02;35.95;;
69620;Laerm;57654;51.434;5.984;2023-01-20T00:29:53;30.92;28.97;37.90;;
69620;Laerm;57654;51.434;5.984;2023-01-20T00:30:03;30.88;28.52;37.52;;
69620;Laerm;57654;51.434;5.984;2023-01-20T00:30:14;31.05;28.79;36.44;;
69620;Laerm;57654;51.434;5.984;2023-01-20T00:30:24;30.99;28.57;36.58;;
69620;Laerm;57654;51.434;5.984;2023-01-20T00:30:34;31.06;28.69;35.73;;
69620;Laerm;57654;51.434;5.984;2023-01-20T00:30:44;31.06;28.69;34.61;;
69620;Laerm;57654;51.434;5.984;2023-01-20T00:30:55;30.92;29.00;35.16;;
69620;Laerm;57654;51.434;5.984;2023-01-20T00:31:09;30.98;28.49;37.17;;
69620;Laerm;57654;51.434;5.984;2023-01-20T00:31:23;31.71;29.04;38.62;;
69620;Laerm;57654;51.434;5.984;2023-01-20T00:31:34;30.97;28.62;37.92;;
69620;Laerm;57654;51.434;5.984;2023-01-20T00:31:45;30.88;28.56;37.35;;
69620;Laerm;57654;51.434;5.984;2023-01-20T00:31:55;30.74;28.98;35.95;;
69620;Laerm;57654;51.434;5.984;2023-01-20T00:32:05;31.06;28.64;35.49;;
69620;Laerm;57654;51.434;5.984;2023-01-20T00:32:15;30.96;28.76;35.80;;
69620;Laerm;57654;51.434;5.984;2023-01-20T00:32:26;30.84;28.86;36.36;;
69620;Laerm;57654;51.434;5.984;2023-01-20T00:32:39;30.91;28.67;36.99;;
69620;Laerm;57654;51.434;5.984;2023-01-20T00:32:53;30.96;28.65;35.86;;
69620;Laerm;57654;51.434;5.984;2023-01-20T00:33:04;30.88;28.80;38.72;;
69620;Laerm;57654;51.434;5.984;2023-01-20T00:33:14;31.02;28.42;36.43;;
69620;Laerm;57654;51.434;5.984;2023-01-20T00:33:24;30.73;28.60;35.87;;
69620;Laerm;57654;51.434;5.984;2023-01-20T00:33:34;30.85;28.74;35.87;;
69620;Laerm;57654;51.434;5.984;2023-01-20T00:33:45;30.91;28.74;36.10;;
69620;Laerm;57654;51.434;5.984;2023-01-20T00:33:57;30.77;28.64;37.06;;
69620;Laerm;57654;51.434;5.984;2023-01-20T00:34:07;30.90;28.88;35.62;;
69620;Laerm;57654;51.434;5.984;2023-01-20T00:34:18;30.84;28.79;34.91;;
69620;Laerm;57654;51.434;5.984;2023-01-20T00:34:28;31.03;28.22;37.04;;
69620;Laerm;57654;51.434;5.984;2023-01-20T00:34:39;30.89;28.83;35.51;;
69620;Laerm;57654;51.434;5.984;2023-01-20T00:34:49;31.09;28.91;36.53;;
69620;Laerm;57654;51.434;5.984;2023-01-20T00:34:59;30.91;28.53;34.95;;
69620;Laerm;57654;51.434;5.984;2023-01-20T00:35:12;31.01;28.93;35.87;;
69620;Laerm;57654;51.434;5.984;2023-01-20T00:35:23;31.24;28.99;38.75;;
69620;Laerm;57654;51.434;5.984;2023-01-20T00:35:33;31.03;29.06;35.22;;
69620;Laerm;57654;51.434;5.984;2023-01-20T00:35:45;30.92;28.67;36.92;;
69620;Laerm;57654;51.434;5.984;2023-01-20T00:35:55;30.96;28.94;35.90;;
69620;Laerm;57654;51.434;5.984;2023-01-20T00:36:06;30.81;28.74;36.70;;
69620;Laerm;57654;51.434;5.984;2023-01-20T00:36:17;31.00;28.74;36.28;;
69620;Laerm;57654;51.434;5.984;2023-01-20T00:36:28;30.99;28.61;39.81;;
69620;Laerm;57654;51.434;5.984;2023-01-20T00:36:40;30.96;29.12;34.86;;
69620;Laerm;57654;51.434;5.984;2023-01-20T00:36:50;31.08;28.99;35.12;;
69620;Laerm;57654;51.434;5.984;2023-01-20T00:37:00;31.14;29.01;35.71;;
69620;Laerm;57654;51.434;5.984;2023-01-20T00:37:10;30.77;28.84;36.06;;
69620;Laerm;57654;51.434;5.984;2023-01-20T00:37:21;31.25;28.68;37.10;;
69620;Laerm;57654;51.434;5.984;2023-01-20T00:37:31;30.74;28.64;34.72;;
69620;Laerm;57654;51.434;5.984;2023-01-20T00:37:41;30.92;28.72;36.38;;
69620;Laerm;57654;51.434;5.984;2023-01-20T00:37:52;30.88;28.89;36.48;;
69620;Laerm;57654;51.434;5.984;2023-01-20T00:38:02;31.19;28.75;38.56;;
69620;Laerm;57654;51.434;5.984;2023-01-20T00:38:12;30.91;28.78;35.38;;
69620;Laerm;57654;51.434;5.984;2023-01-20T00:38:24;31.11;28.72;39.01;;
69620;Laerm;57654;51.434;5.984;2023-01-20T00:38:34;30.88;28.40;36.77;;
69620;Laerm;57654;51.434;5.984;2023-01-20T00:39:00;30.98;28.67;37.33;;
69620;Laerm;57654;51.434;5.984;2023-01-20T00:39:11;30.85;28.79;35.02;;
69620;Laerm;57654;51.434;5.984;2023-01-20T00:39:21;30.71;28.29;34.23;;
69620;Laerm;57654;51.434;5.984;2023-01-20T00:39:31;31.08;28.46;36.79;;
69620;Laerm;57654;51.434;5.984;2023-01-20T00:39:41;30.94;28.84;36.17;;
69620;Laerm;57654;51.434;5.984;2023-01-20T00:39:51;30.79;28.44;35.08;;
69620;Laerm;57654;51.434;5.984;2023-01-20T00:40:02;31.11;28.71;36.43;;
69620;Laerm;57654;51.434;5.984;2023-01-20T00:40:12;30.75;28.48;35.91;;
69620;Laerm;57654;51.434;5.984;2023-01-20T00:40:23;30.78;28.77;37.77;;
69620;Laerm;57654;51.434;5.984;2023-01-20T00:40:33;30.76;28.96;35.86;;
69620;Laerm;57654;51.434;5.984;2023-01-20T00:40:43;30.64;28.93;33.86;;
69620;Laerm;57654;51.434;5.984;2023-01-20T00:40:53;30.85;28.57;35.83;;
69620;Laerm;57654;51.434;5.984;2023-01-20T00:41:04;30.79;28.61;40.21;;
69620;Laerm;57654;51.434;5.984;2023-01-20T00:41:15;30.80;28.61;34.58;;
69620;Laerm;57654;51.434;5.984;2023-01-20T00:41:26;30.95;28.54;36.02;;
69620;Laerm;57654;51.434;5.984;2023-01-20T00:41:36;30.69;28.60;35.02;;
69620;Laerm;57654;51.434;5.984;2023-01-20T00:41:46;30.82;28.90;37.10;;
69620;Laerm;57654;51.434;5.984;2023-01-20T00:41:56;30.68;28.58;35.96;;
69620;Laerm;57654;51.434;5.984;2023-01-20T00:42:06;31.05;28.73;35.65;;
69620;Laerm;57654;51.434;5.984;2023-01-20T00:42:17;31.04;28.67;37.66;;
69620;Laerm;57654;51.434;5.984;2023-01-20T00:42:27;31.01;28.81;36.07;;
69620;Laerm;57654;51.434;5.984;2023-01-20T00:42:37;31.32;28.68;38.11;;
69620;Laerm;57654;51.434;5.984;2023-01-20T00:42:47;31.58;28.62;36.92;;
69620;Laerm;57654;51.434;5.984;2023-01-20T00:42:58;30.76;28.81;35.31;;
69620;Laerm;57654;51.434;5.984;2023-01-20T00:43:08;30.99;28.41;35.80;;
69620;Laerm;57654;51.434;5.984;2023-01-20T00:43:18;30.83;28.49;36.62;;
69620;Laerm;57654;51.434;5.984;2023-01-20T00:43:28;31.02;28.87;37.76;;
69620;Laerm;57654;51.434;5.984;2023-01-20T00:43:39;30.78;28.76;35.02;;
69620;Laerm;57654;51.434;5.984;2023-01-20T00:43:49;30.71;28.45;34.14;;
69620;Laerm;57654;51.434;5.984;2023-01-20T00:43:59;30.79;28.65;34.73;;
69620;Laerm;57654;51.434;5.984;2023-01-20T00:44:09;31.07;28.32;35.13;;
69620;Laerm;57654;51.434;5.984;2023-01-20T00:44:20;30.81;28.59;35.81;;
69620;Laerm;57654;51.434;5.984;2023-01-20T00:44:30;30.69;28.63;34.81;;
69620;Laerm;57654;51.434;5.984;2023-01-20T00:44:40;30.83;28.86;34.80;;
69620;Laerm;57654;51.434;5.984;2023-01-20T00:44:50;30.89;28.58;34.97;;
69620;Laerm;57654;51.434;5.984;2023-01-20T00:45:01;30.91;28.74;36.27;;
69620;Laerm;57654;51.434;5.984;2023-01-20T00:45:11;30.97;28.66;36.70;;
69620;Laerm;57654;51.434;5.984;2023-01-20T00:45:21;30.81;28.33;37.02;;
69620;Laerm;57654;51.434;5.984;2023-01-20T00:45:31;30.97;28.81;35.87;;
69620;Laerm;57654;51.434;5.984;2023-01-20T00:45:42;30.91;28.74;36.34;;
69620;Laerm;57654;51.434;5.984;2023-01-20T00:45:52;30.74;28.50;36.04;;
69620;Laerm;57654;51.434;5.984;2023-01-20T00:46:02;30.85;28.53;35.87;;
69620;Laerm;57654;51.434;5.984;2023-01-20T00:46:13;31.04;28.76;36.57;;
69620;Laerm;57654;51.434;5.984;2023-01-20T00:46:24;30.91;28.88;36.27;;
69620;Laerm;57654;51.434;5.984;2023-01-20T00:46:34;30.93;28.67;35.90;;
69620;Laerm;57654;51.434;5.984;2023-01-20T00:46:44;30.79;28.40;34.92;;
69620;Laerm;57654;51.434;5.984;2023-01-20T00:46:54;30.98;28.45;36.80;;
69620;Laerm;57654;51.434;5.984;2023-01-20T00:47:05;30.99;28.87;34.83;;
69620;Laerm;57654;51.434;5.984;2023-01-20T00:47:15;31.24;28.71;35.61;;
69620;Laerm;57654;51.434;5.984;2023-01-20T00:47:26;33.89;29.01;41.08;;
69620;Laerm;57654;51.434;5.984;2023-01-20T00:47:36;35.45;28.94;43.92;;
69620;Laerm;57654;51.434;5.984;2023-01-20T00:47:46;33.36;29.02;43.56;;
69620;Laerm;57654;51.434;5.984;2023-01-20T00:47:56;31.62;29.12;37.42;;
69620;Laerm;57654;51.434;5.984;2023-01-20T00:48:06;31.46;29.05;36.03;;
69620;Laerm;57654;51.434;5.984;2023-01-20T00:48:17;30.90;28.56;35.12;;
69620;Laerm;57654;51.434;5.984;2023-01-20T00:48:27;31.13;28.72;36.23;;
69620;Laerm;57654;51.434;5.984;2023-01-20T00:48:37;30.99;28.91;36.80;;
69620;Laerm;57654;51.434;5.984;2023-01-20T00:48:48;30.91;28.55;36.05;;
69620;Laerm;57654;51.434;5.984;2023-01-20T00:48:58;30.89;28.86;35.00;;
69620;Laerm;57654;51.434;5.984;2023-01-20T00:49:08;31.13;28.55;38.82;;
69620;Laerm;57654;51.434;5.984;2023-01-20T00:49:19;31.04;28.63;36.78;;
69620;Laerm;57654;51.434;5.984;2023-01-20T00:49:29;30.96;28.58;35.99;;
69620;Laerm;57654;51.434;5.984;2023-01-20T00:49:39;30.70;28.63;34.83;;
69620;Laerm;57654;51.434;5.984;2023-01-20T00:49:50;30.91;28.91;38.67;;
69620;Laerm;57654;51.434;5.984;2023-01-20T00:50:00;30.67;28.75;36.25;;
69620;Laerm;57654;51.434;5.984;2023-01-20T00:50:10;30.87;28.74;37.53;;
69620;Laerm;57654;51.434;5.984;2023-01-20T00:50:21;30.77;28.93;34.82;;
69620;Laerm;57654;51.434;5.984;2023-01-20T00:50:31;30.83;28.62;35.49;;
69620;Laerm;57654;51.434;5.984;2023-01-20T00:50:41;30.90;28.67;38.67;;
69620;Laerm;57654;51.434;5.984;2023-01-20T00:50:52;30.89;28.93;35.27;;
69620;Laerm;57654;51.434;5.984;2023-01-20T00:51:02;30.87;29.03;35.49;;
69620;Laerm;57654;51.434;5.984;2023-01-20T00:51:13;30.75;28.87;35.04;;
69620;Laerm;57654;51.434;5.984;2023-01-20T00:51:23;30.84;28.67;34.17;;
69620;Laerm;57654;51.434;5.984;2023-01-20T00:51:34;30.99;28.92;35.26;;
69620;Laerm;57654;51.434;5.984;2023-01-20T00:51:44;30.92;28.94;36.40;;
69620;Laerm;57654;51.434;5.984;2023-01-20T00:51:54;30.97;28.61;37.36;;
69620;Laerm;57654;51.434;5.984;2023-01-20T00:52:04;30.83;28.46;36.62;;
69620;Laerm;57654;51.434;5.984;2023-01-20T00:52:15;30.64;28.69;36.62;;
69620;Laerm;57654;51.434;5.984;2023-01-20T00:52:27;30.85;28.49;35.93;;
69620;Laerm;57654;51.434;5.984;2023-01-20T00:52:37;31.28;28.85;38.01;;
69620;Laerm;57654;51.434;5.984;2023-01-20T00:52:48;31.06;29.16;36.19;;
69620;Laerm;57654;51.434;5.984;2023-01-20T00:52:58;30.97;28.96;34.96;;
69620;Laerm;57654;51.434;5.984;2023-01-20T00:53:08;30.79;28.84;35.35;;
69620;Laerm;57654;51.434;5.984;2023-01-20T00:53:19;31.05;28.87;35.17;;
69620;Laerm;57654;51.434;5.984;2023-01-20T00:53:29;30.96;28.92;36.25;;
69620;Laerm;57654;51.434;5.984;2023-01-20T00:53:39;30.73;28.62;34.69;;
69620;Laerm;57654;51.434;5.984;2023-01-20T00:53:49;31.11;28.36;36.31;;
69620;Laerm;57654;51.434;5.984;2023-01-20T00:54:00;31.08;28.86;37.70;;
69620;Laerm;57654;51.434;5.984;2023-01-20T00:54:10;30.78;28.43;37.72;;
69620;Laerm;57654;51.434;5.984;2023-01-20T00:54:20;30.78;28.63;36.32;;
69620;Laerm;57654;51.434;5.984;2023-01-20T00:54:30;31.00;28.69;36.78;;
69620;Laerm;57654;51.434;5.984;2023-01-20T00:54:40;30.81;28.77;35.24;;
69620;Laerm;57654;51.434;5.984;2023-01-20T00:54:51;30.96;28.85;35.09;;
69620;Laerm;57654;51.434;5.984;2023-01-20T00:55:01;30.94;29.09;37.22;;
69620;Laerm;57654;51.434;5.984;2023-01-20T00:55:11;31.02;28.82;37.42;;
69620;Laerm;57654;51.434;5.984;2023-01-20T00:55:22;30.73;28.62;36.86;;
69620;Laerm;57654;51.434;5.984;2023-01-20T00:55:32;30.93;28.97;36.21;;
69620;Laerm;57654;51.434;5.984;2023-01-20T00:55:42;30.87;28.68;36.89;;
69620;Laerm;57654;51.434;5.984;2023-01-20T00:55:52;30.91;28.71;34.61;;
69620;Laerm;57654;51.434;5.984;2023-01-20T00:56:03;31.03;28.97;35.61;;
69620;Laerm;57654;51.434;5.984;2023-01-20T00:56:13;30.93;28.60;37.06;;
69620;Laerm;57654;51.434;5.984;2023-01-20T00:56:24;31.09;28.78;38.28;;
69620;Laerm;57654;51.434;5.984;2023-01-20T00:56:34;31.11;28.82;38.34;;
69620;Laerm;57654;51.434;5.984;2023-01-20T00:56:44;31.02;28.71;34.67;;
69620;Laerm;57654;51.434;5.984;2023-01-20T00:56:54;31.00;28.60;35.17;;
69620;Laerm;57654;51.434;5.984;2023-01-20T00:57:05;31.03;28.71;36.11;;
69620;Laerm;57654;51.434;5.984;2023-01-20T00:57:15;31.25;28.94;37.02;;
69620;Laerm;57654;51.434;5.984;2023-01-20T00:57:25;31.21;29.14;37.36;;
69620;Laerm;57654;51.434;5.984;2023-01-20T00:57:35;31.15;29.01;34.90;;
69620;Laerm;57654;51.434;5.984;2023-01-20T00:57:46;31.23;29.40;34.97;;
69620;Laerm;57654;51.434;5.984;2023-01-20T00:57:56;31.29;29.20;35.56;;
69620;Laerm;57654;51.434;5.984;2023-01-20T00:58:06;31.61;29.16;36.89;;
69620;Laerm;57654;51.434;5.984;2023-01-20T00:58:16;31.32;29.34;36.81;;
69620;Laerm;57654;51.434;5.984;2023-01-20T00:58:27;31.27;29.00;37.36;;
69620;Laerm;57654;51.434;5.984;2023-01-20T00:58:37;31.07;29.14;36.89;;
69620;Laerm;57654;51.434;5.984;2023-01-20T00:58:47;31.45;29.26;37.91;;
69620;Laerm;57654;51.434;5.984;2023-01-20T00:58:58;31.86;29.66;36.06;;
69620;Laerm;57654;51.434;5.984;2023-01-20T00:59:08;33.05;30.74;38.44;;
69620;Laerm;57654;51.434;5.984;2023-01-20T00:59:19;45.06;34.11;51.24;;
69620;Laerm;57654;51.434;5.984;2023-01-20T00:59:29;50.87;48.61;52.80;;
69620;Laerm;57654;51.434;5.984;2023-01-20T00:59:39;51.01;48.11;52.92;;
69620;Laerm;57654;51.434;5.984;2023-01-20T00:59:50;48.16;35.01;52.21;;
69620;Laerm;57654;51.434;5.984;2023-01-20T01:00:00;32.80;29.47;37.22;;
69620;Laerm;57654;51.434;5.984;2023-01-20T01:00:10;31.93;29.02;38.18;;
69620;Laerm;57654;51.434;5.984;2023-01-20T01:00:21;31.03;29.20;34.91;;
69620;Laerm;57654;51.434;5.984;2023-01-20T01:00:31;30.98;28.88;35.52;;
69620;Laerm;57654;51.434;5.984;2023-01-20T01:00:42;31.25;29.12;36.65;;
69620;Laerm;57654;51.434;5.984;2023-01-20T01:00:52;31.53;29.27;37.15;;
69620;Laerm;57654;51.434;5.984;2023-01-20T01:01:04;31.66;29.49;35.83;;
69620;Laerm;57654;51.434;5.984;2023-01-20T01:01:14;31.73;29.06;35.26;;
69620;Laerm;57654;51.434;5.984;2023-01-20T01:01:24;31.95;29.36;35.66;;
69620;Laerm;57654;51.434;5.984;2023-01-20T01:01:35;31.76;28.84;38.52;;